createdAt,value
2018-09-22T00:00:54.978Z,55.57
2018-09-22T00:01:54.947Z,59.48
2018-09-22T00:02:54.920Z,59.41
2018-09-22T00:03:54.890Z,59.51
2018-09-22T00:04:54.861Z,61.32
2018-09-22T00:05:54.829Z,59.70
2018-09-22T00:06:54.801Z,60.62
2018-09-22T00:07:54.772Z,58.52
2018-09-22T00:08:54.744Z,56.46
2018-09-22T00:09:54.713Z,55.09
2018-09-22T00:10:54.683Z,57.19
2018-09-22T00:11:54.653Z,56.04
2018-09-22T00:12:54.623Z,55.19
2018-09-22T00:13:54.593Z,53.47
2018-09-22T00:14:54.568Z,50.13
2018-09-22T00:15:54.535Z,51.85
2018-09-22T00:16:54.508Z,52.90
2018-09-22T00:17:54.478Z,53.00
2018-09-22T00:18:54.447Z,52.80
2018-09-22T00:19:54.417Z,51.47
2018-09-22T00:20:54.385Z,50.04
2018-09-22T00:21:54.436Z,52.80
2018-09-22T00:22:54.331Z,54.24
2018-09-22T00:23:54.299Z,45.84
2018-09-22T00:24:54.269Z,45.65
2018-09-22T00:25:54.241Z,50.13
2018-09-22T00:26:54.208Z,48.99
2018-09-22T00:27:54.180Z,45.65
2018-09-22T00:28:54.148Z,43.65
2018-09-22T00:29:54.120Z,46.42
2018-09-22T00:30:54.090Z,48.42
2018-09-22T00:31:54.061Z,45.56
2018-09-22T00:32:54.030Z,46.32
2018-09-22T00:33:54.000Z,49.56
2018-09-22T00:34:53.971Z,46.99
2018-09-22T00:35:53.943Z,45.94
2018-09-22T00:36:53.910Z,47.18
2018-09-22T00:37:53.882Z,44.51
2018-09-22T00:38:53.853Z,44.60
2018-09-22T00:39:53.831Z,42.41
2018-09-22T00:40:53.792Z,38.03
2018-09-22T00:41:53.764Z,37.93
2018-09-22T00:42:53.733Z,40.41
2018-09-22T00:43:53.704Z,44.32
2018-09-22T00:44:53.676Z,41.46
2018-09-22T00:45:53.647Z,41.65
2018-09-22T00:46:53.615Z,40.60
2018-09-22T00:47:53.585Z,42.89
2018-09-22T00:48:53.554Z,39.08
2018-09-22T00:49:53.525Z,36.49
2018-09-22T00:50:53.495Z,35.15
2018-09-22T00:51:53.465Z,34.11
2018-09-22T00:52:53.435Z,32.68
2018-09-22T00:53:53.406Z,34.58
2018-09-22T00:54:53.376Z,34.39
2018-09-22T00:55:53.345Z,34.20
2018-09-22T00:56:53.316Z,31.15
2018-09-22T00:57:53.287Z,30.87
2018-09-22T00:58:53.259Z,36.49
2018-09-22T00:59:53.228Z,37.73
2018-09-22T01:00:53.196Z,34.01
2018-09-22T01:01:53.167Z,30.96
2018-09-22T01:02:53.138Z,33.15
2018-09-22T01:03:53.108Z,32.48
2018-09-22T01:04:53.077Z,30.87
2018-09-22T01:05:53.049Z,33.34
2018-09-22T01:06:53.019Z,32.87
2018-09-22T01:07:52.989Z,29.15
2018-09-22T01:08:52.956Z,27.25
2018-09-22T01:09:52.928Z,26.01
2018-09-22T01:10:52.898Z,26.01
2018-09-22T01:11:52.869Z,27.44
2018-09-22T01:12:52.838Z,25.53
2018-09-22T01:13:52.808Z,25.62
2018-09-22T01:14:52.780Z,22.48
2018-09-22T01:15:52.768Z,26.01
2018-09-22T01:16:52.719Z,25.53
2018-09-22T01:17:53.668Z,22.48
2018-09-22T01:18:52.660Z,22.39
2018-09-22T01:19:52.630Z,20.67
2018-09-22T01:20:52.599Z,20.96
2018-09-22T01:21:52.569Z,23.15
2018-09-22T01:22:52.539Z,22.19
2018-09-22T01:23:52.509Z,21.24
2018-09-22T01:24:52.480Z,23.24
2018-09-22T01:25:52.450Z,20.57
2018-09-22T01:26:52.421Z,20.20
2018-09-22T01:27:52.390Z,21.44
2018-09-22T01:28:52.363Z,20.67
2018-09-22T01:29:52.330Z,21.72
2018-09-22T01:30:52.300Z,20.48
2018-09-22T01:31:52.270Z,20.57
2018-09-22T01:32:52.239Z,19.34
2018-09-22T01:33:52.210Z,18.77
2018-09-22T01:34:52.180Z,21.34
2018-09-22T01:35:52.150Z,19.81
2018-09-22T01:36:52.121Z,18.19
2018-09-22T01:37:52.090Z,19.43
2018-09-22T01:38:52.059Z,20.76
2018-09-22T01:39:52.032Z,18.86
2018-09-22T01:40:51.999Z,17.53
2018-09-22T01:41:51.970Z,18.57
2018-09-22T01:42:51.941Z,16.38
2018-09-22T01:43:51.912Z,19.24
2018-09-22T01:44:51.883Z,22.10
2018-09-22T01:45:51.853Z,19.53
2018-09-22T01:46:51.820Z,18.57
2018-09-22T01:47:51.790Z,19.91
2018-09-22T01:48:51.760Z,24.19
2018-09-22T01:49:51.732Z,21.53
2018-09-22T01:50:51.699Z,19.62
2018-09-22T01:51:51.669Z,21.34
2018-09-22T01:52:51.639Z,20.57
2018-09-22T01:53:51.610Z,23.05
2018-09-22T01:54:51.583Z,19.72
2018-09-22T01:55:51.552Z,21.24
2018-09-22T01:56:51.522Z,18.10
2018-09-22T01:57:52.173Z,15.24
2018-09-22T01:58:51.461Z,10.67
2018-09-22T01:59:51.435Z,10.28
2018-09-22T02:00:51.400Z,9.33
2018-09-22T02:01:51.371Z,9.43
2018-09-22T02:02:51.341Z,8.29
2018-09-22T02:03:51.311Z,7.14
2018-09-22T02:04:51.281Z,5.14
2018-09-22T02:05:51.250Z,4.57
2018-09-22T02:06:51.221Z,8.09
2018-09-22T02:07:51.191Z,6.67
2018-09-22T02:08:51.162Z,5.43
2018-09-22T02:09:51.134Z,3.33
2018-09-22T02:10:51.101Z,6.76
2018-09-22T02:11:51.071Z,3.14
2018-09-22T02:12:51.041Z,2.38
2018-09-22T02:13:51.015Z,3.90
2018-09-22T02:14:50.982Z,7.24
2018-09-22T02:15:50.952Z,6.10
2018-09-22T02:16:50.919Z,5.33
2018-09-22T02:17:50.892Z,4.10
2018-09-22T02:18:50.861Z,5.90
2018-09-22T02:19:50.831Z,4.10
2018-09-22T02:20:50.800Z,2.67
2018-09-22T02:21:50.769Z,3.05
2018-09-22T02:22:50.740Z,1.81
2018-09-22T02:23:50.711Z,4.76
2018-09-22T02:24:50.684Z,4.57
2018-09-22T02:25:50.652Z,4.10
2018-09-22T02:26:50.621Z,2.19
2018-09-22T02:27:50.589Z,4.66
2018-09-22T02:28:50.558Z,7.43
2018-09-22T02:29:50.530Z,2.47
2018-09-22T02:30:50.503Z,3.90
2018-09-22T02:31:50.471Z,5.05
2018-09-22T02:32:50.440Z,8.57
2018-09-22T02:33:50.409Z,6.67
2018-09-22T02:34:50.379Z,7.05
2018-09-22T02:35:50.351Z,9.52
2018-09-22T02:36:50.320Z,11.52
2018-09-22T02:37:50.289Z,11.33
2018-09-22T02:38:51.180Z,11.05
2018-09-22T02:39:50.228Z,10.57
2018-09-22T02:40:50.198Z,10.57
2018-09-22T02:41:50.168Z,9.33
2018-09-22T02:42:50.142Z,6.76
2018-09-22T02:43:50.110Z,4.38
2018-09-22T02:44:50.081Z,7.14
2018-09-22T02:45:50.048Z,6.76
2018-09-22T02:46:50.018Z,7.71
2018-09-22T02:47:49.989Z,7.81
2018-09-22T02:48:49.959Z,10.66
2018-09-22T02:49:49.927Z,7.81
2018-09-22T02:50:49.901Z,7.33
2018-09-22T02:51:49.868Z,5.90
2018-09-22T02:52:49.838Z,5.52
2018-09-22T02:53:49.808Z,4.86
2018-09-22T02:54:49.777Z,2.00
2018-09-22T02:55:49.748Z,3.42
2018-09-22T02:56:49.719Z,4.28
2018-09-22T02:57:49.688Z,2.28
2018-09-22T02:58:49.660Z,1.90
2018-09-22T02:59:49.627Z,4.00
2018-09-22T03:00:49.597Z,6.85
2018-09-22T03:01:49.568Z,7.24
2018-09-22T03:02:49.537Z,5.81
2018-09-22T03:03:49.506Z,8.29
2018-09-22T03:04:49.478Z,10.10
2018-09-22T03:05:49.446Z,8.00
2018-09-22T03:06:49.474Z,6.85
2018-09-22T03:07:49.387Z,5.90
2018-09-22T03:08:50.232Z,5.05
2018-09-22T03:09:49.326Z,5.14
2018-09-22T03:10:49.296Z,3.42
2018-09-22T03:11:49.269Z,0.95
2018-09-22T03:12:49.233Z,2.95
2018-09-22T03:13:49.206Z,4.76
2018-09-22T03:14:49.199Z,1.43
2018-09-22T03:15:49.147Z,1.23
2018-09-22T03:16:49.116Z,1.81
2018-09-22T03:17:49.095Z,0.19
2018-09-22T03:18:49.057Z,0.19
2018-09-22T03:19:49.033Z,0.00
2018-09-22T03:20:48.996Z,2.38
2018-09-22T03:21:48.969Z,6.57
2018-09-22T03:22:48.935Z,5.52
2018-09-22T03:23:48.906Z,4.76
2018-09-22T03:24:48.874Z,2.95
2018-09-22T03:25:48.845Z,0.85
2018-09-22T03:26:48.815Z,0.00
2018-09-22T03:27:48.786Z,2.76
2018-09-22T03:28:48.757Z,5.05
2018-09-22T03:29:48.724Z,4.28
2018-09-22T03:30:48.697Z,5.24
2018-09-22T03:31:48.670Z,5.33
2018-09-22T03:32:48.636Z,4.76
2018-09-22T03:33:48.606Z,4.00
2018-09-22T03:34:48.577Z,5.81
2018-09-22T03:35:48.547Z,5.43
2018-09-22T03:36:48.516Z,4.10
2018-09-22T03:37:48.490Z,3.52
2018-09-22T03:38:48.457Z,6.10
2018-09-22T03:39:48.428Z,8.57
2018-09-22T03:40:48.398Z,7.71
2018-09-22T03:41:48.369Z,8.00
2018-09-22T03:42:48.340Z,4.76
2018-09-22T03:43:48.309Z,7.53
2018-09-22T03:44:48.280Z,9.05
2018-09-22T03:45:48.249Z,7.43
2018-09-22T03:46:48.219Z,6.67
2018-09-22T03:47:48.191Z,6.67
2018-09-22T03:48:48.159Z,5.33
2018-09-22T03:49:48.129Z,4.00
2018-09-22T03:50:48.100Z,3.05
2018-09-22T03:51:48.071Z,2.57
2018-09-22T03:52:48.043Z,3.81
2018-09-22T03:53:48.010Z,5.24
2018-09-22T03:54:47.981Z,5.52
2018-09-22T03:55:47.952Z,5.91
2018-09-22T03:56:47.922Z,6.57
2018-09-22T03:57:47.891Z,6.38
2018-09-22T03:58:47.862Z,9.34
2018-09-22T03:59:47.832Z,7.43
2018-09-22T04:00:47.803Z,5.91
2018-09-22T04:01:47.774Z,3.62
2018-09-22T04:02:47.745Z,2.95
2018-09-22T04:03:47.715Z,3.05
2018-09-22T04:04:47.686Z,3.62
2018-09-22T04:05:47.655Z,5.15
2018-09-22T04:06:47.626Z,7.34
2018-09-22T04:07:47.596Z,6.38
2018-09-22T04:08:47.566Z,5.24
2018-09-22T04:09:47.538Z,4.48
2018-09-22T04:10:47.508Z,6.67
2018-09-22T04:11:47.520Z,6.10
2018-09-22T04:12:47.448Z,3.43
2018-09-22T04:13:47.421Z,2.19
2018-09-22T04:14:47.392Z,4.10
2018-09-22T04:15:47.360Z,5.15
2018-09-22T04:16:47.330Z,3.62
2018-09-22T04:17:47.302Z,4.10
2018-09-22T04:18:47.273Z,4.48
2018-09-22T04:19:47.245Z,4.28
2018-09-22T04:20:47.213Z,2.95
2018-09-22T04:21:47.186Z,2.67
2018-09-22T04:22:47.163Z,3.72
2018-09-22T04:23:47.125Z,3.43
2018-09-22T04:24:47.094Z,2.38
2018-09-22T04:25:47.065Z,3.81
2018-09-22T04:26:47.039Z,4.48
2018-09-22T04:27:47.008Z,4.29
2018-09-22T04:28:46.977Z,6.01
2018-09-22T04:29:46.948Z,7.91
2018-09-22T04:30:46.920Z,7.06
2018-09-22T04:31:46.891Z,7.72
2018-09-22T04:32:46.862Z,6.29
2018-09-22T04:33:46.832Z,5.72
2018-09-22T04:34:46.801Z,5.82
2018-09-22T04:35:46.774Z,6.77
2018-09-22T04:36:46.743Z,6.77
2018-09-22T04:37:46.713Z,6.77
2018-09-22T04:38:46.685Z,6.38
2018-09-22T04:39:46.656Z,5.43
2018-09-22T04:40:46.640Z,3.72
2018-09-22T04:41:46.599Z,4.00
2018-09-22T04:42:46.568Z,4.48
2018-09-22T04:43:46.538Z,5.82
2018-09-22T04:44:47.142Z,5.53
2018-09-22T04:45:46.479Z,6.29
2018-09-22T04:46:46.450Z,4.77
2018-09-22T04:47:46.422Z,5.43
2018-09-22T04:48:46.391Z,3.05
2018-09-22T04:49:46.366Z,5.15
2018-09-22T04:50:46.333Z,6.20
2018-09-22T04:51:46.305Z,6.01
2018-09-22T04:52:46.273Z,8.39
2018-09-22T04:53:46.245Z,7.34
2018-09-22T04:54:46.218Z,8.01
2018-09-22T04:55:46.185Z,8.48
2018-09-22T04:56:46.158Z,8.77
2018-09-22T04:57:46.127Z,6.58
2018-09-22T04:58:46.101Z,5.82
2018-09-22T04:59:46.070Z,5.82
2018-09-22T05:00:53.485Z,7.91
2018-09-22T05:02:39.171Z,6.29
2018-09-22T05:03:39.111Z,13.92
2018-09-22T05:05:31.918Z,9.72
2018-09-22T05:06:31.882Z,10.49
2018-09-22T05:08:25.705Z,10.11
2018-09-22T05:09:25.654Z,10.20
2018-09-22T05:11:18.963Z,16.30
2018-09-22T05:12:18.927Z,19.74
2018-09-22T05:14:12.245Z,16.11
2018-09-22T05:15:12.195Z,15.06
2018-09-22T05:17:05.110Z,12.87
2018-09-22T05:18:04.968Z,10.30
2018-09-22T05:19:57.773Z,14.69
2018-09-22T05:20:57.741Z,13.54
2018-09-22T05:22:50.578Z,10.68
2018-09-22T05:23:50.511Z,12.21
2018-09-22T05:25:43.319Z,14.87
2018-09-22T05:26:43.287Z,14.21
2018-09-22T05:28:36.117Z,12.59
2018-09-22T05:29:36.056Z,12.97
2018-09-22T05:31:28.862Z,14.50
2018-09-22T05:32:28.829Z,13.73
2018-09-22T05:34:22.443Z,12.87
2018-09-22T05:35:22.401Z,14.12
2018-09-22T05:37:15.192Z,15.83
2018-09-22T05:38:15.158Z,14.59
2018-09-22T05:40:07.978Z,14.03
2018-09-22T05:41:07.946Z,14.88
2018-09-22T05:42:07.902Z,15.55
2018-09-22T05:43:07.877Z,15.84
2018-09-22T05:44:07.846Z,19.84
2018-09-22T05:45:07.814Z,20.51
2018-09-22T05:46:07.791Z,21.08
2018-09-22T05:47:07.756Z,21.66
2018-09-22T05:48:07.728Z,21.94
2018-09-22T05:49:07.700Z,21.84
2018-09-22T05:50:07.670Z,21.94
2018-09-22T05:51:07.642Z,23.57
2018-09-22T05:52:07.614Z,22.13
2018-09-22T05:53:07.586Z,20.03
2018-09-22T05:54:07.554Z,18.79
2018-09-22T05:55:07.526Z,18.13
2018-09-22T05:56:07.497Z,19.84
2018-09-22T05:57:07.468Z,20.42
2018-09-22T05:58:07.482Z,17.84
2018-09-22T05:59:07.413Z,18.41
2018-09-22T06:00:07.382Z,17.17
2018-09-22T06:01:07.352Z,15.17
2018-09-22T06:02:07.323Z,16.41
2018-09-22T06:03:07.295Z,15.74
2018-09-22T06:04:07.271Z,17.27
2018-09-22T06:05:07.237Z,16.41
2018-09-22T06:06:07.209Z,17.46
2018-09-22T06:07:07.183Z,17.17
2018-09-22T06:08:07.151Z,16.69
2018-09-22T06:09:07.122Z,15.64
2018-09-22T06:10:07.093Z,18.79
2018-09-22T06:11:07.066Z,17.55
2018-09-22T06:12:07.039Z,16.60
2018-09-22T06:13:07.008Z,16.12
2018-09-22T06:14:06.981Z,17.17
2018-09-22T06:15:06.948Z,18.98
2018-09-22T06:16:06.922Z,19.46
2018-09-22T06:17:06.892Z,23.38
2018-09-22T06:18:06.863Z,22.42
2018-09-22T06:19:06.838Z,21.66
2018-09-22T06:20:06.806Z,24.14
2018-09-22T06:21:06.777Z,23.09
2018-09-22T06:22:06.745Z,22.23
2018-09-22T06:23:06.739Z,23.38
2018-09-22T06:24:06.692Z,25.85
2018-09-22T06:25:06.657Z,24.04
2018-09-22T06:26:06.628Z,20.70
2018-09-22T06:27:06.600Z,20.33
2018-09-22T06:28:06.572Z,20.79
2018-09-22T06:29:06.541Z,21.18
2018-09-22T06:30:06.515Z,20.32
2018-09-22T06:31:06.486Z,21.28
2018-09-22T06:32:06.457Z,20.99
2018-09-22T06:33:06.427Z,20.70
2018-09-22T06:34:06.399Z,22.24
2018-09-22T06:35:06.370Z,21.95
2018-09-22T06:36:06.344Z,25.96
2018-09-22T06:37:06.312Z,28.54
2018-09-22T06:38:06.284Z,29.21
2018-09-22T06:39:06.256Z,27.97
2018-09-22T06:40:06.239Z,26.33
2018-09-22T06:41:06.200Z,27.48
2018-09-22T06:42:07.066Z,25.67
2018-09-22T06:43:06.142Z,24.23
2018-09-22T06:44:06.114Z,24.04
2018-09-22T06:45:06.083Z,21.28
2018-09-22T06:46:06.112Z,19.74
2018-09-22T06:47:06.029Z,21.57
2018-09-22T06:48:06.001Z,25.20
2018-09-22T06:49:05.969Z,25.58
2018-09-22T06:50:05.942Z,26.34
2018-09-22T06:51:05.915Z,26.54
2018-09-22T06:52:05.885Z,28.44
2018-09-22T06:53:05.857Z,29.21
2018-09-22T06:54:05.830Z,30.35
2018-09-22T06:55:05.801Z,33.79
2018-09-22T06:56:05.773Z,30.16
2018-09-22T06:57:05.743Z,31.98
2018-09-22T06:58:05.716Z,29.21
2018-09-22T06:59:05.688Z,29.49
2018-09-22T07:00:05.663Z,30.83
2018-09-22T07:01:05.630Z,28.73
2018-09-22T07:02:05.602Z,28.35
2018-09-22T07:03:05.575Z,28.64
2018-09-22T07:04:05.552Z,33.50
2018-09-22T07:05:05.517Z,31.31
2018-09-22T07:06:05.491Z,31.40
2018-09-22T07:07:05.463Z,31.31
2018-09-22T07:08:05.433Z,29.30
2018-09-22T07:09:05.407Z,31.80
2018-09-22T07:10:05.377Z,34.48
2018-09-22T07:11:05.349Z,34.08
2018-09-22T07:12:05.321Z,32.09
2018-09-22T07:13:05.293Z,30.37
2018-09-22T07:14:05.265Z,30.56
2018-09-22T07:15:05.240Z,33.03
2018-09-22T07:16:05.208Z,30.26
2018-09-22T07:17:05.181Z,29.21
2018-09-22T07:18:05.154Z,28.25
2018-09-22T07:19:05.126Z,29.49
2018-09-22T07:20:05.098Z,30.75
2018-09-22T07:21:05.066Z,33.70
2018-09-22T07:22:05.041Z,35.41
2018-09-22T07:23:05.014Z,35.24
2018-09-22T07:24:04.986Z,37.34
2018-09-22T07:25:04.956Z,40.59
2018-09-22T07:26:04.948Z,36.48
2018-09-22T07:27:04.902Z,36.29
2018-09-22T07:28:04.873Z,37.92
2018-09-22T07:29:04.846Z,37.63
2018-09-22T07:30:04.819Z,40.01
2018-09-22T07:31:04.788Z,41.74
2018-09-22T07:32:04.762Z,40.30
2018-09-22T07:33:04.744Z,39.73
2018-09-22T07:34:04.704Z,44.12
2018-09-22T07:35:04.677Z,43.17
2018-09-22T07:36:04.652Z,42.21
2018-09-22T07:37:04.620Z,41.83
2018-09-22T07:38:04.593Z,38.79
2018-09-22T07:39:04.567Z,44.43
2018-09-22T07:40:04.537Z,43.38
2018-09-22T07:41:04.510Z,43.57
2018-09-22T07:42:04.482Z,47.97
2018-09-22T07:43:04.455Z,48.93
2018-09-22T07:44:04.428Z,47.01
2018-09-22T07:45:04.398Z,44.81
2018-09-22T07:46:04.377Z,44.62
2018-09-22T07:47:04.346Z,44.91
2018-09-22T07:48:04.322Z,46.56
2018-09-22T07:49:04.289Z,48.85
2018-09-22T07:50:04.260Z,49.62
2018-09-22T07:51:04.234Z,53.73
2018-09-22T07:52:04.207Z,52.48
2018-09-22T07:53:04.180Z,51.91
2018-09-22T07:54:04.152Z,51.31
2018-09-22T07:55:04.125Z,49.80
2018-09-22T07:56:04.097Z,53.03
2018-09-22T07:57:04.074Z,52.39
2018-09-22T07:58:04.044Z,52.20
2018-09-22T07:59:04.018Z,53.73
2018-09-22T08:00:03.992Z,53.16
2018-09-22T08:01:03.963Z,51.34
2018-09-22T08:02:03.934Z,49.43
2018-09-22T08:03:03.906Z,50.00
2018-09-22T08:04:03.881Z,54.78
2018-09-22T08:05:03.854Z,52.48
2018-09-22T08:06:03.827Z,53.34
2018-09-22T08:07:03.798Z,54.68
2018-09-22T08:08:03.776Z,54.11
2018-09-22T08:09:03.743Z,55.07
2018-09-22T08:10:03.716Z,55.35
2018-09-22T08:11:03.691Z,52.29
2018-09-22T08:12:03.664Z,55.07
2018-09-22T08:13:03.641Z,54.02
2018-09-22T08:14:03.611Z,53.63
2018-09-22T08:15:03.583Z,51.62
2018-09-22T08:16:03.557Z,54.11
2018-09-22T08:17:03.527Z,54.88
2018-09-22T08:18:03.501Z,58.63
2018-09-22T08:19:03.474Z,58.83
2018-09-22T08:20:03.446Z,56.82
2018-09-22T08:21:03.421Z,56.72
2018-09-22T08:22:03.396Z,58.54
2018-09-22T08:23:03.369Z,63.73
2018-09-22T08:24:03.341Z,66.89
2018-09-22T08:25:03.320Z,70.81
2018-09-22T08:26:03.287Z,70.34
2018-09-22T08:27:03.261Z,74.26
2018-09-22T08:28:03.234Z,69.25
2018-09-22T08:29:03.208Z,68.29
2018-09-22T08:30:03.183Z,65.90
2018-09-22T08:31:03.156Z,70.01
2018-09-22T08:32:03.129Z,69.48
2018-09-22T08:33:03.103Z,67.56
2018-09-22T08:34:03.075Z,66.80
2018-09-22T08:35:03.050Z,67.27
2018-09-22T08:36:03.092Z,68.42
2018-09-22T08:37:03.125Z,69.48
2018-09-22T08:38:02.973Z,66.89
2018-09-22T08:39:02.947Z,67.94
2018-09-22T08:40:02.920Z,71.58
2018-09-22T08:41:02.894Z,72.98
2018-09-22T08:42:02.866Z,74.61
2018-09-22T08:43:02.841Z,74.41
2018-09-22T08:44:02.880Z,75.31
2018-09-22T08:45:02.787Z,75.89
2018-09-22T08:46:02.763Z,79.05
2018-09-22T08:47:02.737Z,77.51
2018-09-22T08:48:02.712Z,75.31
2018-09-22T08:49:02.684Z,76.98
2018-09-22T08:50:02.703Z,74.55
2018-09-22T08:51:02.646Z,80.96
2018-09-22T08:52:02.608Z,79.57
2018-09-22T08:53:03.089Z,82.82
2018-09-22T08:54:02.556Z,80.62
2018-09-22T08:55:02.533Z,82.73
2018-09-22T08:56:02.504Z,85.25
2018-09-22T08:57:02.478Z,86.36
2018-09-22T08:58:02.453Z,85.31
2018-09-22T08:59:02.427Z,85.88
2018-09-22T09:00:02.406Z,84.06
2018-09-22T09:01:02.375Z,82.53
2018-09-22T09:02:02.352Z,84.83
2018-09-22T09:03:02.325Z,85.83
2018-09-22T09:04:02.301Z,87.65
2018-09-22T09:05:02.331Z,90.23
2018-09-22T09:06:02.250Z,88.90
2018-09-22T09:07:02.223Z,88.99
2018-09-22T09:08:02.200Z,91.19
2018-09-22T09:09:02.173Z,88.28
2018-09-22T09:10:02.147Z,89.86
2018-09-22T09:11:02.122Z,92.44
2018-09-22T09:12:02.099Z,91.25
2018-09-22T09:13:02.072Z,91.25
2018-09-22T09:14:02.055Z,92.30
2018-09-22T09:15:02.024Z,88.66
2018-09-22T09:16:01.998Z,91.53
2018-09-22T09:17:02.029Z,89.33
2018-09-22T09:18:01.947Z,91.05
2018-09-22T09:19:01.921Z,90.29
2018-09-22T09:20:01.899Z,90.67
2018-09-22T09:21:01.871Z,92.11
2018-09-22T09:22:01.851Z,91.53
2018-09-22T09:23:01.822Z,91.44
2018-09-22T09:24:01.797Z,89.72
2018-09-22T09:25:01.771Z,91.29
2018-09-22T09:26:01.747Z,90.19
2018-09-22T09:27:01.722Z,90.00
2018-09-22T09:28:01.697Z,89.81
2018-09-22T09:29:01.706Z,89.62
2018-09-22T09:30:01.649Z,90.39
2018-09-22T09:31:01.618Z,89.52
2018-09-22T09:32:01.596Z,87.03
2018-09-22T09:33:01.570Z,86.17
2018-09-22T09:34:01.544Z,86.36
2018-09-22T09:35:01.521Z,92.63
2018-09-22T09:36:01.494Z,92.06
2018-09-22T09:37:01.468Z,94.02
2018-09-22T09:38:01.451Z,96.03
2018-09-22T09:39:01.420Z,94.45
2018-09-22T09:40:01.396Z,98.72
2018-09-22T09:41:01.368Z,98.62
2018-09-22T09:42:01.343Z,99.19
2018-09-22T09:43:01.319Z,99.99
2018-09-22T09:44:01.299Z,99.29
2018-09-22T09:45:01.270Z,99.05
2018-09-22T09:46:01.269Z,99.99
2018-09-22T09:47:01.219Z,99.99
2018-09-22T09:48:01.196Z,99.99
2018-09-22T09:49:01.170Z,99.99
2018-09-22T09:50:01.145Z,99.99
2018-09-22T09:51:01.122Z,99.99
2018-09-22T09:52:01.098Z,99.99
2018-09-22T09:53:01.073Z,99.99
2018-09-22T09:54:01.059Z,99.99
2018-09-22T09:55:01.088Z,99.99
2018-09-22T09:56:00.999Z,99.99
2018-09-22T09:57:00.977Z,99.99
2018-09-22T09:58:00.950Z,99.99
2018-09-22T09:59:00.928Z,99.99
2018-09-22T10:00:00.907Z,99.99
2018-09-22T10:01:00.879Z,99.99
2018-09-22T10:02:00.854Z,99.99
2018-09-22T10:03:00.830Z,99.99
2018-09-22T10:04:00.806Z,99.99
2018-09-22T10:05:00.781Z,99.99
2018-09-22T10:06:00.758Z,99.99
2018-09-22T10:07:00.733Z,99.99
2018-09-22T10:08:00.710Z,99.99
2018-09-22T10:09:00.683Z,99.99
2018-09-22T10:10:00.660Z,99.99
2018-09-22T10:11:00.634Z,99.99
2018-09-22T10:12:00.611Z,99.99
2018-09-22T10:13:00.586Z,99.99
2018-09-22T10:14:00.562Z,99.99
2018-09-22T10:15:00.540Z,99.99
2018-09-22T10:16:00.514Z,99.99
2018-09-22T10:17:00.488Z,99.99
2018-09-22T10:18:00.465Z,98.62
2018-09-22T10:19:00.442Z,97.19
2018-09-22T10:20:00.423Z,98.14
2018-09-22T10:21:00.391Z,99.01
2018-09-22T10:22:00.367Z,99.99
2018-09-22T10:23:00.342Z,99.99
2018-09-22T10:24:00.318Z,99.99
2018-09-22T10:25:00.294Z,99.99
2018-09-22T10:26:00.270Z,99.99
2018-09-22T10:27:00.245Z,99.99
2018-09-22T10:28:00.274Z,99.99
2018-09-22T10:29:00.201Z,99.99
2018-09-22T10:30:00.174Z,99.99
2018-09-22T10:31:00.148Z,99.99
2018-09-22T10:32:00.125Z,99.99
2018-09-22T10:33:00.100Z,97.95
2018-09-22T10:34:00.075Z,98.91
2018-09-22T10:35:00.052Z,99.87
2018-09-22T10:36:00.027Z,99.99
2018-09-22T10:37:00.002Z,99.99
2018-09-22T10:37:59.980Z,99.99
2018-09-22T10:38:59.954Z,99.99
2018-09-22T10:39:59.930Z,99.99
2018-09-22T10:40:59.905Z,99.99
2018-09-22T10:41:59.880Z,99.99
2018-09-22T10:42:59.855Z,99.99
2018-09-22T10:43:59.833Z,99.99
2018-09-22T10:44:59.808Z,99.99
2018-09-22T10:45:59.788Z,99.99
2018-09-22T10:46:59.760Z,99.99
2018-09-22T10:47:59.738Z,99.99
2018-09-22T10:48:59.710Z,99.99
2018-09-22T10:49:59.687Z,99.99
2018-09-22T10:50:59.663Z,99.99
2018-09-22T10:51:59.641Z,99.99
2018-09-22T10:52:59.623Z,99.99
2018-09-22T10:53:59.588Z,99.99
2018-09-22T10:54:59.564Z,99.99
2018-09-22T10:55:59.539Z,99.73
2018-09-22T10:56:59.515Z,96.80
2018-09-22T10:57:59.490Z,96.13
2018-09-22T10:58:59.467Z,95.94
2018-09-22T10:59:59.444Z,92.68
2018-09-22T11:00:59.416Z,92.68
2018-09-22T11:01:59.391Z,93.63
2018-09-22T11:02:59.368Z,95.07
2018-09-22T11:03:59.344Z,96.13
2018-09-22T11:04:59.321Z,95.26
2018-09-22T11:05:59.294Z,95.36
2018-09-22T11:06:59.272Z,95.07
2018-09-22T11:07:59.247Z,93.82
2018-09-22T11:08:59.223Z,91.24
2018-09-22T11:09:59.200Z,91.05
2018-09-22T11:10:59.176Z,91.28
2018-09-22T11:11:59.149Z,88.21
2018-09-22T11:12:59.125Z,86.77
2018-09-22T11:13:59.161Z,82.84
2018-09-22T11:14:59.079Z,83.45
2018-09-22T11:15:59.054Z,84.31
2018-09-22T11:16:59.033Z,84.51
2018-09-22T11:17:59.009Z,83.54
2018-09-22T11:18:58.983Z,82.59
2018-09-22T11:19:58.962Z,85.85
2018-09-22T11:20:58.935Z,85.95
2018-09-22T11:21:58.913Z,84.31
2018-09-22T11:22:58.889Z,85.66
2018-09-22T11:23:58.866Z,83.54
2018-09-22T11:24:58.849Z,85.47
2018-09-22T11:25:58.820Z,85.04
2018-09-22T11:26:58.815Z,86.77
2018-09-22T11:27:58.778Z,88.21
2018-09-22T11:28:58.749Z,87.68
2018-09-22T11:29:58.728Z,87.30
2018-09-22T11:30:58.702Z,89.51
2018-09-22T11:31:58.681Z,90.18
2018-09-22T11:32:58.654Z,89.89
2018-09-22T11:33:58.633Z,91.19
2018-09-22T11:34:58.610Z,93.63
2018-09-22T11:35:58.588Z,94.98
2018-09-22T11:36:58.564Z,94.69
2018-09-22T11:37:58.541Z,91.47
2018-09-22T11:38:58.515Z,87.35
2018-09-22T11:39:58.491Z,88.49
2018-09-22T11:40:58.469Z,88.31
2018-09-22T11:41:58.444Z,90.03
2018-09-22T11:42:58.419Z,90.56
2018-09-22T11:43:58.397Z,91.52
2018-09-22T11:44:58.374Z,93.40
2018-09-22T11:45:58.347Z,94.17
2018-09-22T11:46:58.326Z,92.54
2018-09-22T11:47:58.300Z,93.11
2018-09-22T11:48:58.276Z,91.52
2018-09-22T11:49:58.253Z,90.08
2018-09-22T11:50:58.228Z,88.45
2018-09-22T11:51:59.127Z,89.32
2018-09-22T11:52:58.178Z,89.89
2018-09-22T11:53:58.157Z,90.18
2018-09-22T11:54:58.130Z,85.81
2018-09-22T11:55:58.108Z,86.19
2018-09-22T11:56:58.086Z,85.91
2018-09-22T11:57:58.057Z,82.21
2018-09-22T11:58:58.033Z,84.81
2018-09-22T11:59:58.018Z,82.21
2018-09-22T12:00:57.984Z,83.27
2018-09-22T12:01:58.012Z,85.19
2018-09-22T12:02:57.937Z,83.51
2018-09-22T12:03:57.912Z,82.35
2018-09-22T12:04:57.886Z,81.01
2018-09-22T12:05:57.877Z,80.34
2018-09-22T12:06:57.838Z,81.63
2018-09-22T12:07:57.815Z,79.80
2018-09-22T12:08:57.789Z,81.05
2018-09-22T12:09:57.766Z,78.75
2018-09-22T12:10:57.743Z,78.17
2018-09-22T12:11:57.718Z,80.66
2018-09-22T12:12:57.694Z,82.01
2018-09-22T12:13:57.729Z,79.32
2018-09-22T12:14:57.647Z,82.07
2018-09-22T12:15:57.624Z,85.14
2018-09-22T12:16:57.598Z,87.05
2018-09-22T12:17:57.576Z,85.52
2018-09-22T12:18:57.554Z,83.98
2018-09-22T12:19:57.528Z,85.81
2018-09-22T12:20:57.502Z,83.03
2018-09-22T12:21:57.480Z,82.07
2018-09-22T12:22:57.459Z,84.27
2018-09-22T12:23:57.431Z,84.27
2018-09-22T12:24:57.417Z,84.75
2018-09-22T12:25:57.384Z,84.70
2018-09-22T12:26:57.360Z,78.45
2018-09-22T12:27:57.336Z,76.92
2018-09-22T12:28:57.312Z,75.20
2018-09-22T12:29:57.292Z,73.56
2018-09-22T12:30:57.265Z,72.60
2018-09-22T12:31:57.244Z,75.00
2018-09-22T12:32:57.216Z,74.62
2018-09-22T12:33:57.193Z,71.77
2018-09-22T12:34:57.170Z,73.60
2018-09-22T12:35:57.147Z,73.41
2018-09-22T12:36:57.123Z,70.14
2018-09-22T12:37:57.099Z,69.62
2018-09-22T12:38:57.077Z,69.72
2018-09-22T12:39:57.053Z,69.81
2018-09-22T12:40:57.030Z,70.20
2018-09-22T12:41:57.004Z,70.39
2018-09-22T12:42:56.986Z,71.55
2018-09-22T12:43:56.960Z,75.38
2018-09-22T12:44:56.935Z,75.67
2018-09-22T12:45:56.965Z,78.17
2018-09-22T12:46:56.931Z,78.27
2018-09-22T12:47:56.867Z,77.21
2018-09-22T12:48:56.845Z,79.22
2018-09-22T12:49:56.819Z,76.59
2018-09-22T12:50:56.794Z,76.59
2018-09-22T12:51:56.772Z,78.80
2018-09-22T12:52:56.747Z,78.23
2018-09-22T12:53:56.723Z,76.69
2018-09-22T12:54:56.700Z,74.71
2018-09-22T12:55:56.677Z,75.06
2018-09-22T12:56:56.651Z,78.23
2018-09-22T12:57:56.629Z,83.03
2018-09-22T12:58:56.605Z,84.56
2018-09-22T12:59:56.583Z,84.56
2018-09-22T13:00:56.560Z,84.37
2018-09-22T13:01:56.533Z,82.84
2018-09-22T13:02:56.510Z,80.34
2018-09-22T13:03:56.487Z,83.03
2018-09-22T13:04:56.461Z,79.19
2018-09-22T13:05:56.437Z,77.46
2018-09-22T13:06:56.413Z,78.80
2018-09-22T13:07:56.390Z,79.96
2018-09-22T13:08:56.365Z,82.26
2018-09-22T13:09:56.339Z,84.85
2018-09-22T13:10:56.315Z,83.89